Time;durP1;ratioP1;P1;durP2;ratioP2;P2;SDS_P1;SDS_P2;PMS_P1;PMS_P2;Temp;Humidity;BMP_temperature;BMP_pressure;BME280_temperature;BME280_humidity;BME280_pressure;Samples;Min_cycle;Max_cycle;Signal;HPM_P1;HPM_P2
2020/12/07 00:01:50;;;;;;;58.13;34.55;;;4.30;93.00;;;;;;5015443;28;20500;-79
2020/12/07 00:04:15;;;;;;;64.38;35.15;;;4.30;93.00;;;;;;5015304;28;20024;-78
2020/12/07 00:06:41;;;;;;;70.38;36.55;;;4.30;93.00;;;;;;5018287;28;20397;-79
2020/12/07 00:09:07;;;;;;;68.55;36.92;;;4.30;93.00;;;;;;5018071;28;20033;-78
2020/12/07 00:11:33;;;;;;;53.45;32.38;;;4.30;93.00;;;;;;5018353;28;20044;-79
2020/12/07 00:14:00;;;;;;;55.47;33.30;;;4.40;93.10;;;;;;5034905;28;20108;-79
2020/12/07 00:16:26;;;;;;;67.97;37.22;;;4.30;93.00;;;;;;5034798;28;20032;-78
2020/12/07 00:18:52;;;;;;;61.85;36.40;;;4.30;93.10;;;;;;5051557;28;20029;-78
2020/12/07 00:21:17;;;;;;;65.10;37.53;;;4.30;93.10;;;;;;5051527;28;20029;-79
2020/12/07 00:23:43;;;;;;;59.97;33.83;;;4.30;93.10;;;;;;5052499;28;20052;-78
2020/12/07 00:26:12;;;;;;;58.85;33.83;;;4.30;93.20;;;;;;5021959;28;20032;-78
2020/12/07 00:28:38;;;;;;;69.60;36.58;;;4.30;93.40;;;;;;5021837;28;20091;-83
2020/12/07 00:31:05;;;;;;;54.90;32.42;;;4.30;93.10;;;;;;5049443;28;20037;-78
2020/12/07 00:33:31;;;;;;;63.33;35.75;;;4.30;93.50;;;;;;5056063;28;20029;-78
2020/12/07 00:35:57;;;;;;;56.72;32.58;;;4.40;93.20;;;;;;5028483;28;20132;-78
2020/12/07 00:38:22;;;;;;;61.97;33.58;;;4.40;93.20;;;;;;5039667;28;20099;-80
2020/12/07 00:40:48;;;;;;;61.38;34.83;;;4.40;93.20;;;;;;5016807;28;20037;-79
2020/12/07 00:43:14;;;;;;;62.80;34.17;;;4.40;93.20;;;;;;5039703;28;20114;-82
2020/12/07 00:45:39;;;;;;;67.97;36.10;;;4.40;93.20;;;;;;5039706;28;20029;-89
2020/12/07 00:48:05;;;;;;;58.58;32.95;;;4.40;93.20;;;;;;5039482;28;20539;-89
2020/12/07 00:50:30;;;;;;;59.83;33.28;;;4.40;93.20;;;;;;5022454;28;20025;-88
2020/12/07 00:52:56;;;;;;;69.63;36.90;;;4.40;93.20;;;;;;5006327;28;20067;-88
2020/12/07 00:55:22;;;;;;;65.18;36.22;;;4.40;93.20;;;;;;5002780;28;20041;-88
2020/12/07 00:57:47;;;;;;;59.63;33.50;;;4.30;93.20;;;;;;5003105;28;20044;-88
2020/12/07 01:00:13;;;;;;;57.17;32.95;;;4.40;93.50;;;;;;5003241;28;20029;-88
2020/12/07 01:02:39;;;;;;;79.38;40.22;;;4.40;93.30;;;;;;5023550;28;20555;-88
2020/12/07 01:05:05;;;;;;;79.40;41.20;;;4.40;93.30;;;;;;5052448;28;20048;-88
2020/12/07 01:07:31;;;;;;;67.97;36.72;;;4.40;93.30;;;;;;5038947;28;20025;-88
2020/12/07 01:09:57;;;;;;;69.00;38.00;;;4.40;93.30;;;;;;5040874;28;20029;-88
2020/12/07 01:12:22;;;;;;;61.30;35.35;;;4.40;93.30;;;;;;5038904;28;20029;-87
2020/12/07 01:14:50;;;;;;;72.07;41.67;;;4.40;93.60;;;;;;5022063;28;20531;-88
2020/12/07 01:17:16;;;;;;;85.63;43.90;;;4.40;93.40;;;;;;5023188;28;20029;-87
2020/12/07 01:19:42;;;;;;;70.47;39.80;;;4.40;93.30;;;;;;5022561;28;20115;-87
2020/12/07 01:22:07;;;;;;;73.40;41.03;;;4.40;93.40;;;;;;5054736;28;20025;-87
2020/12/07 01:24:35;;;;;;;69.43;40.78;;;4.40;93.30;;;;;;5038417;28;20032;-87
2020/12/07 01:27:01;;;;;;;72.53;42.35;;;4.40;93.30;;;;;;5039061;28;20028;-87
2020/12/07 01:29:27;;;;;;;84.70;44.60;;;4.30;93.30;;;;;;5054282;28;20029;-88
2020/12/07 01:31:52;;;;;;;80.15;47.22;;;4.30;93.30;;;;;;5038413;28;20029;-88
2020/12/07 01:34:18;;;;;;;68.63;40.28;;;4.30;93.30;;;;;;5038339;28;20033;-88
2020/12/07 01:36:43;;;;;;;90.90;50.80;;;4.30;93.20;;;;;;5021111;28;20037;-87
2020/12/07 01:39:09;;;;;;;75.47;42.97;;;4.30;93.30;;;;;;5009510;28;20038;-88
2020/12/07 01:41:35;;;;;;;100.07;50.53;;;4.20;93.20;;;;;;5014754;28;20033;-88
2020/12/07 01:44:00;;;;;;;86.88;47.15;;;4.20;93.30;;;;;;5016260;28;20032;-88
2020/12/07 01:46:26;;;;;;;78.28;43.80;;;4.20;93.30;;;;;;4998453;28;20034;-80
2020/12/07 01:48:53;;;;;;;99.72;51.30;;;4.20;93.30;;;;;;5010456;28;20033;-79
2020/12/07 01:51:20;;;;;;;90.63;48.33;;;4.20;93.30;;;;;;4978286;28;20491;-80
2020/12/07 01:53:47;;;;;;;89.68;49.17;;;4.20;93.30;;;;;;4994649;28;20442;-79
2020/12/07 01:56:18;;;;;;;106.05;54.03;;;4.20;93.30;;;;;;5009207;28;20478;-79
2020/12/07 01:58:44;;;;;;;104.57;54.28;;;4.20;93.30;;;;;;5013852;28;20084;-79
2020/12/07 02:01:10;;;;;;;85.32;48.97;;;4.20;93.20;;;;;;5013521;28;20038;-80
2020/12/07 02:03:35;;;;;;;93.68;53.47;;;4.20;93.20;;;;;;4994039;28;20025;-79
2020/12/07 02:06:01;;;;;;;111.85;56.97;;;4.20;93.20;;;;;;4980934;28;20034;-80
2020/12/07 02:08:26;;;;;;;139.55;66.32;;;4.10;93.20;;;;;;5013556;28;20402;-80
2020/12/07 02:10:52;;;;;;;102.90;55.92;;;4.20;93.30;;;;;;4997307;28;20073;-79
2020/12/07 02:13:18;;;;;;;147.68;64.70;;;4.20;93.30;;;;;;4994131;28;20030;-80
2020/12/07 02:15:43;;;;;;;100.80;52.90;;;4.10;93.50;;;;;;4993952;28;20027;-79
2020/12/07 02:18:09;;;;;;;106.47;55.90;;;4.10;93.30;;;;;;4994030;28;20108;-78
2020/12/07 02:20:35;;;;;;;114.13;58.63;;;4.10;93.30;;;;;;4996805;28;20076;-78
2020/12/07 02:23:01;;;;;;;97.10;52.75;;;4.10;93.30;;;;;;5013137;28;20033;-79
2020/12/07 02:25:26;;;;;;;96.03;51.45;;;4.10;93.40;;;;;;5012928;28;20065;-79
2020/12/07 02:27:53;;;;;;;91.00;51.08;;;4.10;93.40;;;;;;5013080;28;20379;-78
2020/12/07 02:30:21;;;;;;;123.53;57.83;;;4.10;93.40;;;;;;5013961;28;20088;-79
2020/12/07 02:32:48;;;;;;;110.47;56.27;;;4.10;93.30;;;;;;5012798;28;20109;-78
2020/12/07 02:35:15;;;;;;;100.07;55.00;;;4.10;93.30;;;;;;5012197;28;20026;-79
2020/12/07 02:37:42;;;;;;;97.90;52.67;;;4.10;93.30;;;;;;5010361;28;20053;-78
2020/12/07 02:40:09;;;;;;;124.57;58.55;;;4.10;93.40;;;;;;5009792;28;20042;-78
2020/12/07 02:42:39;;;;;;;112.20;57.45;;;4.10;93.40;;;;;;5012502;28;20045;-78
2020/12/07 02:45:07;;;;;;;90.07;50.50;;;4.00;93.50;;;;;;4996396;28;20080;-79
2020/12/07 02:47:33;;;;;;;120.70;57.35;;;4.00;93.50;;;;;;5013342;28;20022;-78
2020/12/07 02:49:59;;;;;;;94.10;50.63;;;4.10;93.50;;;;;;5012517;28;20036;-79
2020/12/07 02:52:26;;;;;;;91.72;50.05;;;4.00;93.50;;;;;;4996343;28;20038;-79
2020/12/07 02:54:57;;;;;;;103.95;52.85;;;4.10;93.60;;;;;;5012669;28;20029;-78
2020/12/07 02:57:23;;;;;;;121.43;56.17;;;4.10;93.50;;;;;;4996648;28;20060;-78
2020/12/07 02:59:50;;;;;;;106.57;52.75;;;4.00;93.50;;;;;;4996302;28;20125;-80
2020/12/07 03:02:15;;;;;;;118.35;53.97;;;4.10;93.60;;;;;;5012827;28;20018;-78
2020/12/07 03:04:41;;;;;;;87.53;49.15;;;4.10;93.70;;;;;;4996391;28;20507;-79
2020/12/07 03:07:07;;;;;;;88.15;47.45;;;4.10;93.60;;;;;;5012495;28;20064;-79
2020/12/07 03:09:33;;;;;;;122.43;55.15;;;4.10;93.60;;;;;;5012509;28;20386;-79
2020/12/07 03:11:59;;;;;;;98.85;50.38;;;4.10;93.60;;;;;;5012668;28;20390;-79
2020/12/07 03:14:26;;;;;;;73.47;41.83;;;4.10;93.60;;;;;;5012690;28;20030;-79
2020/12/07 03:16:52;;;;;;;89.18;45.60;;;4.20;93.60;;;;;;5012552;28;20379;-79
2020/12/07 03:19:18;;;;;;;89.40;47.90;;;4.20;93.60;;;;;;5012367;28;20026;-78
2020/12/07 03:21:45;;;;;;;92.47;48.97;;;4.20;93.50;;;;;;4996008;28;20049;-79
2020/12/07 03:24:11;;;;;;;81.55;44.38;;;4.20;93.80;;;;;;5012570;28;20021;-79
2020/12/07 03:26:37;;;;;;;76.60;43.67;;;4.20;93.50;;;;;;5013585;28;20109;-79
2020/12/07 03:29:04;;;;;;;77.75;43.92;;;4.20;93.50;;;;;;5012346;28;20057;-79
2020/12/07 03:31:34;;;;;;;86.80;43.75;;;4.20;93.60;;;;;;5013477;28;20023;-89
2020/12/07 03:34:01;;;;;;;73.10;42.00;;;4.20;93.80;;;;;;5014366;28;20121;-89
2020/12/07 03:36:27;;;;;;;69.65;40.25;;;4.20;93.60;;;;;;5014177;28;20069;-89
2020/12/07 03:38:54;;;;;;;80.97;43.80;;;4.20;93.80;;;;;;5013094;28;20038;-89
2020/12/07 03:41:20;;;;;;;73.40;42.47;;;4.20;93.50;;;;;;5013520;28;20452;-89
2020/12/07 03:43:46;;;;;;;77.40;43.05;;;4.20;93.50;;;;;;5013276;28;20022;-89
2020/12/07 03:46:12;;;;;;;91.55;47.17;;;4.30;93.50;;;;;;5013468;28;20507;-87
2020/12/07 03:48:38;;;;;;;90.45;47.55;;;4.30;93.50;;;;;;5014255;28;20026;-89
2020/12/07 03:51:04;;;;;;;91.40;48.78;;;4.30;93.40;;;;;;4997272;28;20156;-88
2020/12/07 03:53:38;;;;;;;83.95;46.35;;;4.20;93.40;;;;;;5013921;28;20040;-89
2020/12/07 03:56:06;;;;;;;97.07;48.63;;;4.20;93.40;;;;;;4981102;28;20037;-88
2020/12/07 03:58:31;;;;;;;78.38;44.83;;;4.20;93.40;;;;;;5014577;28;20022;-89
2020/12/07 04:00:57;;;;;;;83.97;45.55;;;4.20;93.40;;;;;;5017182;28;20029;-89
2020/12/07 04:03:24;;;;;;;77.78;45.63;;;4.20;93.40;;;;;;5017142;28;20160;-89
2020/12/07 04:06:04;;;;;;;82.45;44.85;;;4.20;93.40;;;;;;5017414;28;20032;-89
2020/12/07 04:08:30;;;;;;;85.88;47.00;;;4.20;93.40;;;;;;5016947;28;20037;-88
2020/12/07 04:10:56;;;;;;;78.47;44.88;;;4.20;93.40;;;;;;5000506;28;20117;-88
2020/12/07 04:13:22;;;;;;;91.22;49.40;;;4.20;93.40;;;;;;5016887;28;20033;-88
2020/12/07 04:15:47;;;;;;;90.55;50.28;;;4.20;93.40;;;;;;5016855;28;20426;-88
2020/12/07 04:18:13;;;;;;;96.88;51.20;;;4.20;93.40;;;;;;5016087;28;20034;-79
2020/12/07 04:20:38;;;;;;;121.97;58.47;;;4.20;93.40;;;;;;5015734;28;20105;-80
2020/12/07 04:23:07;;;;;;;85.93;49.88;;;4.20;93.50;;;;;;5015551;28;20116;-79
2020/12/07 04:25:32;;;;;;;87.13;46.72;;;4.10;93.60;;;;;;5015739;28;20034;-80
2020/12/07 04:27:58;;;;;;;93.10;49.50;;;4.10;93.60;;;;;;5013844;28;20037;-79
2020/12/07 04:30:23;;;;;;;77.72;43.88;;;4.20;93.70;;;;;;5016906;28;20063;-80
2020/12/07 04:32:49;;;;;;;89.72;47.42;;;4.20;93.70;;;;;;5015605;28;20469;-79
2020/12/07 04:35:16;;;;;;;105.40;53.30;;;4.20;93.60;;;;;;4995576;28;20201;-79
2020/12/07 04:37:41;;;;;;;77.45;45.58;;;4.20;93.60;;;;;;5014755;28;20033;-79
2020/12/07 04:40:07;;;;;;;86.60;46.33;;;4.20;93.50;;;;;;5015238;28;20057;-80
2020/12/07 04:42:33;;;;;;;89.90;48.58;;;4.20;93.50;;;;;;4998909;28;20026;-83
2020/12/07 04:44:59;;;;;;;81.95;45.00;;;4.20;93.50;;;;;;5015583;28;20029;-83
2020/12/07 04:47:25;;;;;;;86.07;45.58;;;4.20;93.50;;;;;;5011033;28;20034;-83
2020/12/07 04:49:54;;;;;;;87.60;48.28;;;4.20;93.50;;;;;;4982720;28;20034;-82
2020/12/07 04:52:20;;;;;;;87.63;46.30;;;4.20;93.40;;;;;;4993926;28;20165;-83
2020/12/07 04:54:46;;;;;;;79.13;43.83;;;4.20;93.50;;;;;;5015181;28;20080;-83
2020/12/07 04:57:14;;;;;;;91.35;47.47;;;4.20;93.50;;;;;;5016155;28;20454;-84
2020/12/07 04:59:41;;;;;;;83.45;44.75;;;4.20;93.80;;;;;;5016329;28;20084;-84
2020/12/07 05:02:07;;;;;;;104.63;52.25;;;4.10;93.40;;;;;;4998584;28;20022;-83
2020/12/07 05:04:36;;;;;;;85.32;47.75;;;4.20;93.40;;;;;;5015502;28;20426;-83
2020/12/07 05:07:09;;;;;;;86.32;46.63;;;4.10;93.30;;;;;;4998415;28;20033;-83
2020/12/07 05:09:37;;;;;;;81.30;45.65;;;4.10;93.40;;;;;;5014280;28;20034;-83
2020/12/07 05:12:09;;;;;;;111.60;54.22;;;4.10;93.40;;;;;;5014642;28;20037;-83
2020/12/07 05:14:34;;;;;;;110.82;52.50;;;4.10;93.40;;;;;;5014950;28;20051;-84
2020/12/07 05:17:00;;;;;;;77.28;44.63;;;4.10;93.50;;;;;;5010714;28;20039;-83
2020/12/07 05:19:26;;;;;;;78.78;45.22;;;4.10;93.50;;;;;;4998005;28;20030;-83
2020/12/07 05:21:51;;;;;;;95.22;48.97;;;4.10;93.80;;;;;;4998811;28;20036;-84
2020/12/07 05:24:17;;;;;;;79.03;44.42;;;4.10;93.50;;;;;;4995037;28;20027;-83
2020/12/07 05:26:46;;;;;;;73.15;42.47;;;4.20;93.50;;;;;;4998497;28;20086;-83
2020/12/07 05:29:24;;;;;;;68.32;38.00;;;4.20;93.50;;;;;;5014723;28;20033;-83
2020/12/07 05:31:50;;;;;;;67.57;39.90;;;4.20;93.50;;;;;;5015031;28;20024;-83
2020/12/07 05:34:15;;;;;;;74.30;42.72;;;4.20;93.40;;;;;;5014242;28;20121;-84
2020/12/07 05:36:41;;;;;;;66.15;38.92;;;4.20;93.40;;;;;;5013907;28;20030;-83
2020/12/07 05:39:07;;;;;;;67.80;38.22;;;4.30;93.40;;;;;;5032770;28;20498;-83
2020/12/07 05:41:34;;;;;;;63.03;39.38;;;4.30;93.40;;;;;;5021129;28;20035;-83
2020/12/07 05:44:03;;;;;;;77.18;42.33;;;4.30;93.40;;;;;;5038799;28;20108;-83
2020/12/07 05:46:29;;;;;;;;;;;4.20;93.30;;;;;;5042676;28;20032;-84
2020/12/07 05:48:56;;;;;;;64.53;39.08;;;4.20;93.30;;;;;;5054661;28;19958;-83
2020/12/07 05:51:24;;;;;;;76.35;42.95;;;4.30;93.30;;;;;;5046832;28;20023;-83
2020/12/07 05:53:51;;;;;;;63.88;38.15;;;4.20;93.30;;;;;;5054694;28;20042;-84
2020/12/07 05:56:17;;;;;;;71.63;39.15;;;4.20;93.30;;;;;;5053961;28;20363;-83
2020/12/07 05:58:59;;;;;;;65.78;39.15;;;4.20;93.30;;;;;;5024398;28;20021;-83
2020/12/07 06:01:26;;;;;;;67.90;37.92;;;4.20;93.30;;;;;;5045546;28;20032;-83
2020/12/07 06:03:53;;;;;;;59.78;36.97;;;4.30;93.30;;;;;;5050713;28;20432;-82
2020/12/07 06:06:32;;;;;;;72.60;40.90;;;4.30;93.20;;;;;;5063504;28;20029;-83
2020/12/07 06:09:03;;;;;;;63.28;36.47;;;4.30;93.20;;;;;;5037075;28;20033;-83
2020/12/07 06:11:34;;;;;;;71.00;40.45;;;4.30;93.20;;;;;;5054299;28;20025;-82
2020/12/07 06:14:03;;;;;;;60.83;35.95;;;4.30;93.20;;;;;;5052438;28;20056;-83
2020/12/07 06:16:36;;;;;;;64.38;38.00;;;4.30;93.20;;;;;;5037124;28;20112;-82
2020/12/07 06:19:13;;;;;;;83.05;44.83;;;4.30;93.20;;;;;;5050871;28;20040;-82
2020/12/07 06:21:47;;;;;;;69.68;38.28;;;4.30;93.10;;;;;;5053319;28;20017;-82
2020/12/07 06:24:13;;;;;;;70.72;38.80;;;4.30;93.10;;;;;;5037274;28;20025;-83
2020/12/07 06:26:39;;;;;;;85.40;42.67;;;4.30;93.10;;;;;;5015768;28;20363;-82
2020/12/07 06:29:05;;;;;;;66.78;40.42;;;4.30;93.10;;;;;;5016390;28;20037;-82
2020/12/07 06:31:35;;;;;;;71.55;40.92;;;4.30;93.10;;;;;;5050071;28;20453;-83
2020/12/07 06:34:09;;;;;;;71.57;40.00;;;4.30;93.40;;;;;;5026832;28;20041;-81
2020/12/07 06:36:39;;;;;;;72.28;40.63;;;4.30;93.10;;;;;;5034287;28;20048;-82
2020/12/07 06:39:07;;;;;;;83.07;45.47;;;4.30;93.10;;;;;;5023996;28;20045;-81
2020/12/07 06:41:39;;;;;;;80.05;45.75;;;4.30;93.00;;;;;;5047591;28;20032;-82
2020/12/07 06:44:14;;;;;;;77.78;42.55;;;4.30;93.00;;;;;;5038320;28;20029;-84
2020/12/07 06:50:14;;;;;;;108.43;51.80;;;4.30;93.10;;;;;;5053624;28;20104;-83
2020/12/07 06:52:23;;;;;;;87.45;46.53;;;4.20;93.00;;;;;;5045261;28;20037;-84
2020/12/07 06:55:13;;;;;;;73.72;41.50;;;4.20;93.00;;;;;;5053604;28;20040;-84
2020/12/07 06:57:45;;;;;;;85.03;44.33;;;4.20;93.00;;;;;;5036139;28;20087;-84
2020/12/07 07:00:19;;;;;;;87.97;44.70;;;4.20;93.30;;;;;;5053987;28;20477;-83
2020/12/07 07:02:46;;;;;;;80.78;45.80;;;4.20;93.00;;;;;;5036240;28;20029;-84
2020/12/07 07:05:14;;;;;;;87.90;46.88;;;4.20;93.00;;;;;;5054300;28;20021;-86
2020/12/07 07:07:39;;;;;;;82.28;45.22;;;4.20;93.00;;;;;;5054321;28;20377;-85
2020/12/07 07:10:08;;;;;;;99.32;46.70;;;4.20;92.90;;;;;;5053843;28;20021;-85
2020/12/07 07:12:35;;;;;;;86.90;44.88;;;4.20;92.90;;;;;;5036273;28;20084;-84
2020/12/07 07:15:01;;;;;;;83.60;45.33;;;4.20;92.90;;;;;;5036229;28;20381;-84
2020/12/07 07:17:32;;;;;;;88.75;45.50;;;4.20;92.90;;;;;;5037205;28;20485;-84
2020/12/07 07:19:59;;;;;;;109.95;51.85;;;4.20;92.90;;;;;;5035925;28;20025;-84
2020/12/07 07:22:25;;;;;;;88.93;44.97;;;4.20;92.90;;;;;;5036317;28;20082;-84
2020/12/07 07:28:07;;;;;;;96.97;48.83;;;4.10;92.90;;;;;;5032242;28;20389;-84
2020/12/07 07:30:33;;;;;;;88.10;45.13;;;4.10;92.90;;;;;;5035950;28;20490;-84
2020/12/07 07:32:59;;;;;;;87.47;43.22;;;4.10;92.90;;;;;;5035348;28;20029;-84
2020/12/07 07:35:28;;;;;;;88.13;44.50;;;4.10;92.90;;;;;;5035594;28;20025;-84
2020/12/07 07:37:54;;;;;;;115.53;50.47;;;4.10;92.90;;;;;;5035693;28;20115;-84
2020/12/07 07:40:24;;;;;;;96.18;45.08;;;4.10;92.90;;;;;;5053149;28;20116;-84
2020/12/07 07:42:56;;;;;;;93.28;44.95;;;4.10;92.80;;;;;;5035842;28;20025;-85
2020/12/07 07:45:30;;;;;;;102.30;49.33;;;4.10;92.90;;;;;;5036051;28;20504;-86
2020/12/07 08:17:50;;;;;;;88.65;43.70;;;4.10;92.70;;;;;;5052717;28;20071;-79
2020/12/07 08:20:18;;;;;;;108.57;49.33;;;4.10;93.00;;;;;;5052838;28;20714;-80
2020/12/07 08:23:05;;;;;;;89.90;44.75;;;4.10;92.70;;;;;;5034748;28;20032;-79
2020/12/07 08:25:40;;;;;;;88.80;44.58;;;4.10;92.80;;;;;;5034794;28;20036;-79
2020/12/07 08:28:40;;;;;;;89.32;43.72;;;4.10;92.70;;;;;;5052599;28;20147;-79
2020/12/07 08:31:10;;;;;;;90.75;46.97;;;4.10;92.70;;;;;;5003436;28;20397;-79
2020/12/07 08:33:52;;;;;;;94.80;45.75;;;4.10;92.70;;;;;;5051367;28;20025;-79
2020/12/07 08:36:18;;;;;;;96.28;48.47;;;4.00;92.70;;;;;;5052111;28;20048;-79
2020/12/07 08:38:45;;;;;;;98.63;48.35;;;4.10;92.70;;;;;;5017284;28;20033;-79
2020/12/07 08:41:33;;;;;;;83.85;42.92;;;4.00;92.60;;;;;;5052597;28;20479;-79
2020/12/07 08:44:04;;;;;;;86.03;42.53;;;4.10;92.70;;;;;;5052560;28;20021;-80
2020/12/07 08:46:35;;;;;;;84.10;43.45;;;4.10;92.90;;;;;;5037184;28;20048;-79
2020/12/07 08:49:02;;;;;;;75.50;41.42;;;4.10;92.60;;;;;;5038376;28;20028;-80
2020/12/07 08:51:32;;;;;;;90.15;46.03;;;4.10;92.60;;;;;;5021724;28;20124;-80
2020/12/07 08:53:58;;;;;;;78.53;41.05;;;4.10;92.60;;;;;;5056015;28;20067;-79
2020/12/07 08:56:24;;;;;;;78.35;41.50;;;4.10;92.60;;;;;;5038185;28;20118;-79
2020/12/07 08:58:49;;;;;;;84.55;43.45;;;4.10;92.60;;;;;;5038049;28;20036;-80
2020/12/07 09:01:15;;;;;;;88.45;44.53;;;4.10;92.60;;;;;;5021776;28;20147;-80
2020/12/07 09:03:42;;;;;;;82.45;42.63;;;4.20;92.60;;;;;;5055987;28;20139;-79
2020/12/07 09:06:09;;;;;;;77.47;42.58;;;4.20;92.60;;;;;;5021630;28;20040;-80
2020/12/07 09:08:36;;;;;;;86.47;45.60;;;4.20;92.60;;;;;;5038241;28;20483;-84
2020/12/07 09:11:17;;;;;;;85.03;45.05;;;4.20;92.60;;;;;;5056384;28;20584;-84
2020/12/07 09:13:43;;;;;;;81.30;43.88;;;4.10;92.60;;;;;;5038896;28;20386;-84
2020/12/07 09:16:09;;;;;;;91.30;44.95;;;4.20;92.60;;;;;;5056140;28;20040;-84
2020/12/07 09:18:39;;;;;;;79.82;41.88;;;4.20;92.60;;;;;;5038378;28;20061;-84
2020/12/07 09:21:06;;;;;;;83.65;45.67;;;4.20;92.50;;;;;;5038370;28;20029;-84
2020/12/07 09:23:33;;;;;;;86.95;45.33;;;4.20;92.50;;;;;;5022051;28;20068;-84
2020/12/07 09:25:58;;;;;;;90.18;46.67;;;4.20;92.50;;;;;;5038265;28;20029;-84
2020/12/07 09:28:24;;;;;;;96.18;47.70;;;4.20;92.40;;;;;;5022013;28;20120;-85
2020/12/07 09:30:49;;;;;;;111.85;53.47;;;4.20;92.40;;;;;;5038560;28;20053;-86
2020/12/07 09:33:15;;;;;;;100.03;49.80;;;4.20;92.40;;;;;;5038541;28;20067;-85
2020/12/07 09:35:41;;;;;;;89.43;47.63;;;4.10;92.40;;;;;;5021525;28;20059;-84
2020/12/07 09:38:08;;;;;;;87.45;43.92;;;4.20;92.50;;;;;;5021434;28;20401;-84
2020/12/07 09:40:34;;;;;;;106.57;52.28;;;4.20;92.50;;;;;;5037846;28;20120;-84
2020/12/07 09:43:01;;;;;;;92.68;47.17;;;4.20;92.50;;;;;;5055470;28;20076;-85
2020/12/07 09:45:27;;;;;;;92.93;47.47;;;4.20;92.50;;;;;;5037896;28;20029;-80
2020/12/07 09:47:53;;;;;;;96.60;50.35;;;4.20;92.50;;;;;;5037092;28;20024;-80
2020/12/07 09:50:19;;;;;;;92.65;48.33;;;4.20;92.50;;;;;;5037140;28;20393;-80
2020/12/07 09:52:44;;;;;;;94.95;46.80;;;4.10;92.50;;;;;;5037189;28;20032;-85
2020/12/07 09:55:16;;;;;;;97.63;47.60;;;4.20;92.50;;;;;;5037967;28;20025;-85
2020/12/07 09:57:42;;;;;;;95.65;48.75;;;4.20;92.40;;;;;;5037101;28;20130;-85
2020/12/07 10:00:08;;;;;;;116.05;53.22;;;4.30;92.40;;;;;;5037693;28;20493;-85
2020/12/07 10:02:34;;;;;;;90.45;47.08;;;4.20;92.30;;;;;;5037516;28;20021;-85
2020/12/07 10:05:00;;;;;;;83.88;43.58;;;4.20;92.40;;;;;;5037827;28;20477;-85
2020/12/07 10:07:25;;;;;;;88.68;43.92;;;4.20;92.40;;;;;;5037553;28;20124;-85
2020/12/07 10:09:51;;;;;;;86.18;43.33;;;4.20;92.40;;;;;;5020998;28;20036;-85
2020/12/07 10:12:17;;;;;;;87.20;45.13;;;4.20;92.40;;;;;;5020873;28;20037;-86
2020/12/07 10:14:42;;;;;;;87.10;43.88;;;4.20;92.40;;;;;;5037119;28;20381;-80
2020/12/07 10:17:08;;;;;;;87.57;45.55;;;4.20;92.40;;;;;;5019856;28;20087;-80
2020/12/07 10:19:34;;;;;;;88.15;46.10;;;4.20;92.40;;;;;;5054665;28;20082;-80
2020/12/07 10:22:04;;;;;;;91.75;47.58;;;4.30;92.70;;;;;;5037659;28;20424;-79
2020/12/07 10:24:30;;;;;;;94.15;45.33;;;4.30;92.40;;;;;;5054638;28;20017;-79
2020/12/07 10:26:56;;;;;;;84.90;43.10;;;4.20;92.40;;;;;;5036347;28;20021;-79
2020/12/07 10:29:22;;;;;;;74.15;39.47;;;4.20;92.40;;;;;;5036275;28;20078;-80
2020/12/07 10:31:48;;;;;;;84.30;43.13;;;4.20;92.40;;;;;;5019787;28;20048;-80
2020/12/07 10:34:13;;;;;;;81.00;41.08;;;4.30;92.50;;;;;;5036447;28;20033;-84
2020/12/07 10:36:39;;;;;;;89.45;46.15;;;4.30;92.40;;;;;;5020310;28;20032;-84
2020/12/07 10:39:07;;;;;;;82.03;43.55;;;4.40;92.40;;;;;;5020187;28;20056;-84
2020/12/07 10:41:33;;;;;;;80.97;42.65;;;4.40;92.30;;;;;;5037396;28;20476;-85
2020/12/07 10:43:58;;;;;;;84.93;43.80;;;4.40;92.30;;;;;;5054550;28;20070;-85
2020/12/07 10:46:24;;;;;;;78.15;42.40;;;4.40;92.30;;;;;;5020442;28;20037;-85
2020/12/07 10:48:50;;;;;;;78.30;42.28;;;4.40;92.30;;;;;;5036835;28;20029;-85
2020/12/07 10:51:17;;;;;;;85.55;43.42;;;4.40;92.30;;;;;;5054439;28;20036;-85
2020/12/07 10:53:42;;;;;;;75.22;41.92;;;4.40;92.20;;;;;;5054599;28;20021;-85
2020/12/07 10:56:14;;;;;;;86.43;43.25;;;4.50;92.40;;;;;;5020160;28;20029;-85
2020/12/07 10:58:40;;;;;;;81.15;41.38;;;4.50;92.30;;;;;;5054221;28;20412;-85
2020/12/07 11:01:06;;;;;;;88.03;43.97;;;4.50;92.60;;;;;;5036150;28;20056;-86
2020/12/07 11:03:32;;;;;;;78.93;41.53;;;4.50;92.20;;;;;;5019946;28;20048;-86
2020/12/07 11:05:58;;;;;;;77.50;41.17;;;4.50;92.20;;;;;;5036432;28;20029;-85
2020/12/07 11:08:35;;;;;;;77.63;40.00;;;4.50;92.20;;;;;;5019335;28;20032;-85
2020/12/07 11:11:01;;;;;;;71.85;37.13;;;4.60;92.30;;;;;;5054278;28;20032;-85
2020/12/07 11:13:28;;;;;;;88.22;42.78;;;4.60;92.30;;;;;;5019704;28;20037;-85
2020/12/07 11:16:01;;;;;;;87.55;42.80;;;4.60;92.30;;;;;;5020117;28;20025;-85
2020/12/07 11:18:31;;;;;;;76.18;38.90;;;4.70;92.30;;;;;;5017211;28;20430;-84
2020/12/07 11:20:57;;;;;;;85.55;42.70;;;4.70;92.30;;;;;;5020538;28;20108;-84
2020/12/07 11:23:23;;;;;;;81.88;40.05;;;4.70;92.20;;;;;;5026052;28;20040;-84
2020/12/07 11:25:50;;;;;;;79.15;39.92;;;4.70;92.50;;;;;;5019703;28;20033;-85
2020/12/07 11:28:15;;;;;;;89.45;44.70;;;4.70;92.20;;;;;;5035961;28;20374;-84
2020/12/07 11:30:41;;;;;;;78.20;42.00;;;4.60;92.10;;;;;;5016398;28;20044;-85
2020/12/07 11:33:07;;;;;;;90.80;42.67;;;4.70;92.20;;;;;;5032712;28;20478;-86
2020/12/07 11:35:32;;;;;;;78.90;41.75;;;4.70;92.20;;;;;;5051204;28;20037;-86
2020/12/07 11:38:05;;;;;;;81.68;42.30;;;4.70;92.20;;;;;;5019591;28;20071;-86
2020/12/07 11:43:05;;;;;;;78.13;40.85;;;4.70;92.20;;;;;;5053547;28;20024;-85
2020/12/07 11:45:31;;;;;;;79.22;39.97;;;4.70;92.10;;;;;;5017290;28;20033;-86
2020/12/07 11:47:56;;;;;;;71.55;38.08;;;4.80;92.40;;;;;;5034989;28;20188;-85
2020/12/07 11:50:22;;;;;;;73.30;37.80;;;4.80;92.10;;;;;;5036031;28;20021;-85
2020/12/07 11:52:48;;;;;;;77.95;40.22;;;4.90;92.10;;;;;;5026455;28;20040;-79
2020/12/07 11:55:13;;;;;;;75.93;39.47;;;4.90;92.10;;;;;;5011667;28;20486;-78
2020/12/07 11:57:39;;;;;;;76.25;37.58;;;4.90;92.10;;;;;;5015141;28;20495;-85
2020/12/07 12:00:04;;;;;;;87.47;41.30;;;4.90;92.00;;;;;;5016013;28;20029;-85
2020/12/07 12:02:30;;;;;;;74.45;41.03;;;4.90;92.30;;;;;;5034287;28;20103;-79
2020/12/07 12:04:56;;;;;;;82.18;43.35;;;4.90;92.00;;;;;;5020635;28;20125;-78
2020/12/07 12:07:21;;;;;;;72.32;39.63;;;4.90;92.00;;;;;;4999179;28;20036;-79
2020/12/07 12:09:47;;;;;;;82.50;43.28;;;5.00;92.10;;;;;;5033440;28;20444;-78
2020/12/07 12:12:12;;;;;;;79.90;42.28;;;5.00;92.10;;;;;;5033416;28;20478;-78
2020/12/07 12:14:38;;;;;;;76.85;41.53;;;5.00;92.00;;;;;;4999068;28;20047;-78
2020/12/07 12:17:04;;;;;;;79.32;42.13;;;5.00;92.00;;;;;;5015061;28;20425;-78
2020/12/07 12:19:29;;;;;;;80.10;41.05;;;5.00;92.00;;;;;;5016563;28;20034;-78
2020/12/07 12:21:55;;;;;;;76.78;40.90;;;5.00;92.00;;;;;;5019237;28;20036;-79
2020/12/07 12:24:21;;;;;;;75.05;40.20;;;5.00;91.90;;;;;;5035585;28;20108;-78
2020/12/07 12:26:46;;;;;;;76.22;41.22;;;5.10;91.90;;;;;;5002820;28;20036;-79
2020/12/07 12:29:12;;;;;;;74.68;41.65;;;5.10;91.90;;;;;;5019126;28;20113;-78
2020/12/07 12:31:38;;;;;;;80.25;41.83;;;5.10;91.80;;;;;;5018903;28;20034;-79
2020/12/07 12:34:04;;;;;;;81.97;43.55;;;5.10;91.80;;;;;;5002434;28;20029;-79
2020/12/07 12:36:30;;;;;;;75.05;39.20;;;5.10;91.80;;;;;;5036567;28;20022;-79
2020/12/07 12:38:58;;;;;;;70.50;39.45;;;5.20;91.80;;;;;;5035400;28;20041;-79
2020/12/07 12:41:24;;;;;;;71.18;38.30;;;5.20;91.80;;;;;;5018754;28;20426;-79
2020/12/07 12:43:50;;;;;;;69.95;38.90;;;5.20;91.70;;;;;;5021261;28;20132;-78
2020/12/07 12:46:15;;;;;;;81.68;40.85;;;5.20;91.80;;;;;;5038440;28;20025;-78
2020/12/07 12:48:41;;;;;;;65.72;36.45;;;5.30;91.70;;;;;;5038606;28;20108;-85
2020/12/07 12:51:08;;;;;;;70.70;39.67;;;5.30;91.70;;;;;;5056799;28;20082;-86
2020/12/07 12:53:35;;;;;;;73.35;38.08;;;5.30;91.70;;;;;;5022956;28;20037;-86
2020/12/07 12:56:04;;;;;;;70.20;38.53;;;5.40;91.70;;;;;;5056723;28;20028;-86
2020/12/07 12:58:29;;;;;;;64.72;36.05;;;5.30;91.70;;;;;;5056923;28;20025;-86
2020/12/07 13:00:55;;;;;;;78.78;43.28;;;5.30;91.70;;;;;;5022783;28;20045;-88
2020/12/07 13:03:21;;;;;;;77.55;41.15;;;5.40;91.60;;;;;;5039079;28;20098;-88
2020/12/07 13:05:47;;;;;;;69.32;38.00;;;5.40;91.60;;;;;;5022296;28;20033;-88
2020/12/07 13:08:12;;;;;;;71.93;41.08;;;5.40;91.60;;;;;;5040266;28;20082;-88
2020/12/07 13:10:38;;;;;;;68.35;37.33;;;5.40;91.60;;;;;;5039083;28;20029;-88
2020/12/07 13:13:04;;;;;;;74.20;38.10;;;5.50;91.60;;;;;;5038865;28;20036;-88
2020/12/07 13:15:31;;;;;;;72.13;38.35;;;5.50;91.60;;;;;;5056668;28;20527;-88